sensor_id;sensor_type;location;lat;lon;timestamp;pressure;altitude;pressure_sealevel;temperature
41593;BMP180;28026;48.562;14.440;2022-10-17T00:01:13;94529.00;;;21.30
41593;BMP180;28026;48.562;14.440;2022-10-17T00:03:44;94531.00;;;21.30
41593;BMP180;28026;48.562;14.440;2022-10-17T00:06:15;94529.00;;;21.20
41593;BMP180;28026;48.562;14.440;2022-10-17T00:08:46;94526.00;;;21.20
41593;BMP180;28026;48.562;14.440;2022-10-17T00:11:21;94538.00;;;21.20
41593;BMP180;28026;48.562;14.440;2022-10-17T00:13:55;94532.00;;;21.20
41593;BMP180;28026;48.562;14.440;2022-10-17T00:16:33;94531.00;;;21.20
41593;BMP180;28026;48.562;14.440;2022-10-17T00:19:06;94528.00;;;21.10
41593;BMP180;28026;48.562;14.440;2022-10-17T00:21:37;94528.00;;;21.10
41593;BMP180;28026;48.562;14.440;2022-10-17T00:24:08;94530.00;;;21.10
41593;BMP180;28026;48.562;14.440;2022-10-17T00:26:39;94533.00;;;21.10
41593;BMP180;28026;48.562;14.440;2022-10-17T00:29:10;94533.00;;;21.00
41593;BMP180;28026;48.562;14.440;2022-10-17T00:31:41;94534.00;;;21.00
41593;BMP180;28026;48.562;14.440;2022-10-17T00:34:12;94539.00;;;21.00
41593;BMP180;28026;48.562;14.440;2022-10-17T00:36:43;94537.00;;;21.00
41593;BMP180;28026;48.562;14.440;2022-10-17T00:39:14;94537.00;;;21.00
41593;BMP180;28026;48.562;14.440;2022-10-17T00:41:45;94537.00;;;21.00
41593;BMP180;28026;48.562;14.440;2022-10-17T00:47:07;94541.00;;;20.90
41593;BMP180;28026;48.562;14.440;2022-10-17T00:49:43;94531.00;;;20.80
41593;BMP180;28026;48.562;14.440;2022-10-17T00:52:20;94536.00;;;20.80
41593;BMP180;28026;48.562;14.440;2022-10-17T00:55:08;94533.00;;;20.80
41593;BMP180;28026;48.562;14.440;2022-10-17T00:57:47;94529.00;;;20.80
41593;BMP180;28026;48.562;14.440;2022-10-17T01:00:20;94528.00;;;20.80
41593;BMP180;28026;48.562;14.440;2022-10-17T01:02:51;94523.00;;;20.80
41593;BMP180;28026;48.562;14.440;2022-10-17T01:05:22;94528.00;;;20.70
41593;BMP180;28026;48.562;14.440;2022-10-17T01:07:54;94526.00;;;20.70
41593;BMP180;28026;48.562;14.440;2022-10-17T01:13:52;94526.00;;;20.70
41593;BMP180;28026;48.562;14.440;2022-10-17T01:16:44;94521.00;;;20.60
41593;BMP180;28026;48.562;14.440;2022-10-17T01:20:25;94525.00;;;20.60
41593;BMP180;28026;48.562;14.440;2022-10-17T01:33:07;94529.00;;;20.40
41593;BMP180;28026;48.562;14.440;2022-10-17T01:36:00;94526.00;;;20.40
41593;BMP180;28026;48.562;14.440;2022-10-17T01:38:48;94521.00;;;20.40
41593;BMP180;28026;48.562;14.440;2022-10-17T01:44:44;94524.00;;;20.30
41593;BMP180;28026;48.562;14.440;2022-10-17T01:47:37;94519.00;;;20.30
41593;BMP180;28026;48.562;14.440;2022-10-17T01:50:17;94526.00;;;20.20
41593;BMP180;28026;48.562;14.440;2022-10-17T01:53:01;94521.00;;;20.20
41593;BMP180;28026;48.562;14.440;2022-10-17T01:55:41;94521.00;;;20.20
41593;BMP180;28026;48.562;14.440;2022-10-17T01:58:30;94517.00;;;20.20
41593;BMP180;28026;48.562;14.440;2022-10-17T02:01:06;94521.00;;;20.20
41593;BMP180;28026;48.562;14.440;2022-10-17T02:03:44;94524.00;;;20.10
41593;BMP180;28026;48.562;14.440;2022-10-17T02:06:18;94518.00;;;20.10
41593;BMP180;28026;48.562;14.440;2022-10-17T02:08:50;94516.00;;;20.10
41593;BMP180;28026;48.562;14.440;2022-10-17T02:11:24;94516.00;;;20.10
41593;BMP180;28026;48.562;14.440;2022-10-17T02:14:31;94520.00;;;20.00
41593;BMP180;28026;48.562;14.440;2022-10-17T02:27:12;94517.00;;;19.90
41593;BMP180;28026;48.562;14.440;2022-10-17T02:30:02;94518.00;;;19.80
41593;BMP180;28026;48.562;14.440;2022-10-17T02:32:51;94517.00;;;19.80
41593;BMP180;28026;48.562;14.440;2022-10-17T02:35:30;94517.00;;;19.80
41593;BMP180;28026;48.562;14.440;2022-10-17T02:38:09;94518.00;;;19.80
41593;BMP180;28026;48.562;14.440;2022-10-17T02:40:43;94516.00;;;19.70
41593;BMP180;28026;48.562;14.440;2022-10-17T02:43:16;94516.00;;;19.60
41593;BMP180;28026;48.562;14.440;2022-10-17T02:45:50;94517.00;;;19.60
41593;BMP180;28026;48.562;14.440;2022-10-17T02:48:47;94524.00;;;19.60
41593;BMP180;28026;48.562;14.440;2022-10-17T02:51:42;94519.00;;;19.50
41593;BMP180;28026;48.562;14.440;2022-10-17T02:54:50;94526.00;;;19.50
41593;BMP180;28026;48.562;14.440;2022-10-17T02:57:45;94518.00;;;19.50
41593;BMP180;28026;48.562;14.440;2022-10-17T03:00:22;94520.00;;;19.40
41593;BMP180;28026;48.562;14.440;2022-10-17T03:02:54;94524.00;;;19.40
41593;BMP180;28026;48.562;14.440;2022-10-17T03:05:28;94527.00;;;19.30
41593;BMP180;28026;48.562;14.440;2022-10-17T03:07:59;94523.00;;;19.30
41593;BMP180;28026;48.562;14.440;2022-10-17T03:10:30;94524.00;;;19.30
41593;BMP180;28026;48.562;14.440;2022-10-17T03:13:01;94519.00;;;19.20
41593;BMP180;28026;48.562;14.440;2022-10-17T03:15:31;94525.00;;;19.20
41593;BMP180;28026;48.562;14.440;2022-10-17T03:18:02;94532.00;;;19.20
41593;BMP180;28026;48.562;14.440;2022-10-17T03:20:34;94528.00;;;19.20
41593;BMP180;28026;48.562;14.440;2022-10-17T03:23:05;94521.00;;;19.20
41593;BMP180;28026;48.562;14.440;2022-10-17T03:25:36;94527.00;;;19.20
41593;BMP180;28026;48.562;14.440;2022-10-17T03:28:08;94530.00;;;19.20
41593;BMP180;28026;48.562;14.440;2022-10-17T03:30:40;94527.00;;;19.20
41593;BMP180;28026;48.562;14.440;2022-10-17T03:33:11;94526.00;;;19.10
41593;BMP180;28026;48.562;14.440;2022-10-17T03:35:42;94527.00;;;19.10
41593;BMP180;28026;48.562;14.440;2022-10-17T03:38:12;94528.00;;;19.10
41593;BMP180;28026;48.562;14.440;2022-10-17T03:40:43;94533.00;;;19.10
41593;BMP180;28026;48.562;14.440;2022-10-17T03:43:14;94535.00;;;19.10
41593;BMP180;28026;48.562;14.440;2022-10-17T03:45:45;94531.00;;;19.10
41593;BMP180;28026;48.562;14.440;2022-10-17T03:48:16;94533.00;;;19.00
41593;BMP180;28026;48.562;14.440;2022-10-17T03:50:47;94535.00;;;19.00
41593;BMP180;28026;48.562;14.440;2022-10-17T03:53:18;94534.00;;;19.00
41593;BMP180;28026;48.562;14.440;2022-10-17T03:55:49;94533.00;;;19.00
41593;BMP180;28026;48.562;14.440;2022-10-17T03:58:20;94527.00;;;19.00
41593;BMP180;28026;48.562;14.440;2022-10-17T04:00:50;94530.00;;;19.00
41593;BMP180;28026;48.562;14.440;2022-10-17T04:03:21;94531.00;;;19.00
41593;BMP180;28026;48.562;14.440;2022-10-17T04:05:52;94526.00;;;19.00
41593;BMP180;28026;48.562;14.440;2022-10-17T04:08:24;94531.00;;;19.00
41593;BMP180;28026;48.562;14.440;2022-10-17T04:11:04;94531.00;;;19.00
41593;BMP180;28026;48.562;14.440;2022-10-17T04:13:37;94538.00;;;19.00
41593;BMP180;28026;48.562;14.440;2022-10-17T04:16:15;94537.00;;;18.90
41593;BMP180;28026;48.562;14.440;2022-10-17T04:18:46;94533.00;;;18.90
41593;BMP180;28026;48.562;14.440;2022-10-17T04:21:25;94542.00;;;18.90
41593;BMP180;28026;48.562;14.440;2022-10-17T04:23:59;94535.00;;;18.90
41593;BMP180;28026;48.562;14.440;2022-10-17T04:26:30;94551.00;;;18.90
41593;BMP180;28026;48.562;14.440;2022-10-17T04:29:02;94547.00;;;18.90
41593;BMP180;28026;48.562;14.440;2022-10-17T04:31:33;94549.00;;;18.90
41593;BMP180;28026;48.562;14.440;2022-10-17T04:34:04;94545.00;;;18.90
41593;BMP180;28026;48.562;14.440;2022-10-17T04:36:35;94544.00;;;18.80
41593;BMP180;28026;48.562;14.440;2022-10-17T04:39:07;94547.00;;;18.80
41593;BMP180;28026;48.562;14.440;2022-10-17T04:41:38;94547.00;;;18.80
41593;BMP180;28026;48.562;14.440;2022-10-17T04:44:10;94551.00;;;18.80
41593;BMP180;28026;48.562;14.440;2022-10-17T04:46:41;94553.00;;;18.80
41593;BMP180;28026;48.562;14.440;2022-10-17T04:49:11;94550.00;;;18.80
41593;BMP180;28026;48.562;14.440;2022-10-17T04:51:42;94553.00;;;18.70
41593;BMP180;28026;48.562;14.440;2022-10-17T04:54:14;94548.00;;;18.70
41593;BMP180;28026;48.562;14.440;2022-10-17T04:56:45;94546.00;;;18.70
41593;BMP180;28026;48.562;14.440;2022-10-17T04:59:16;94554.00;;;18.70
41593;BMP180;28026;48.562;14.440;2022-10-17T05:01:48;94550.00;;;18.70
41593;BMP180;28026;48.562;14.440;2022-10-17T05:04:19;94547.00;;;18.70
41593;BMP180;28026;48.562;14.440;2022-10-17T05:06:50;94548.00;;;18.70
41593;BMP180;28026;48.562;14.440;2022-10-17T05:09:21;94552.00;;;18.70
41593;BMP180;28026;48.562;14.440;2022-10-17T05:11:52;94548.00;;;18.70
41593;BMP180;28026;48.562;14.440;2022-10-17T05:14:23;94548.00;;;18.60
41593;BMP180;28026;48.562;14.440;2022-10-17T05:16:54;94550.00;;;18.60
41593;BMP180;28026;48.562;14.440;2022-10-17T05:19:25;94551.00;;;18.60
41593;BMP180;28026;48.562;14.440;2022-10-17T05:21:56;94547.00;;;18.60
41593;BMP180;28026;48.562;14.440;2022-10-17T05:24:27;94554.00;;;18.60
41593;BMP180;28026;48.562;14.440;2022-10-17T05:26:57;94544.00;;;18.60
41593;BMP180;28026;48.562;14.440;2022-10-17T05:29:28;94549.00;;;18.50
41593;BMP180;28026;48.562;14.440;2022-10-17T05:31:59;94548.00;;;18.60
41593;BMP180;28026;48.562;14.440;2022-10-17T05:34:30;94544.00;;;18.60
41593;BMP180;28026;48.562;14.440;2022-10-17T05:37:02;94546.00;;;18.60
41593;BMP180;28026;48.562;14.440;2022-10-17T05:39:33;94544.00;;;18.60
41593;BMP180;28026;48.562;14.440;2022-10-17T05:42:06;94548.00;;;18.60
41593;BMP180;28026;48.562;14.440;2022-10-17T05:44:37;94555.00;;;18.60
41593;BMP180;28026;48.562;14.440;2022-10-17T05:47:09;94559.00;;;18.60
41593;BMP180;28026;48.562;14.440;2022-10-17T05:49:40;94567.00;;;18.60
41593;BMP180;28026;48.562;14.440;2022-10-17T05:52:11;94562.00;;;18.60
41593;BMP180;28026;48.562;14.440;2022-10-17T05:54:42;94580.00;;;18.60
41593;BMP180;28026;48.562;14.440;2022-10-17T05:57:12;94579.00;;;18.60
41593;BMP180;28026;48.562;14.440;2022-10-17T05:59:43;94582.00;;;18.70
41593;BMP180;28026;48.562;14.440;2022-10-17T06:02:14;94583.00;;;18.70
41593;BMP180;28026;48.562;14.440;2022-10-17T06:04:45;94579.00;;;18.70
41593;BMP180;28026;48.562;14.440;2022-10-17T06:07:18;94584.00;;;18.70
41593;BMP180;28026;48.562;14.440;2022-10-17T06:09:49;94582.00;;;18.80
41593;BMP180;28026;48.562;14.440;2022-10-17T06:12:20;94577.00;;;18.80
41593;BMP180;28026;48.562;14.440;2022-10-17T06:14:51;94579.00;;;18.90
41593;BMP180;28026;48.562;14.440;2022-10-17T06:17:22;94588.00;;;18.90
41593;BMP180;28026;48.562;14.440;2022-10-17T06:19:53;94588.00;;;19.00
41593;BMP180;28026;48.562;14.440;2022-10-17T06:22:24;94591.00;;;19.10
41593;BMP180;28026;48.562;14.440;2022-10-17T06:24:55;94586.00;;;19.30
41593;BMP180;28026;48.562;14.440;2022-10-17T06:27:26;94598.00;;;19.40
41593;BMP180;28026;48.562;14.440;2022-10-17T06:29:56;94597.00;;;19.50
41593;BMP180;28026;48.562;14.440;2022-10-17T06:32:27;94602.00;;;19.60
41593;BMP180;28026;48.562;14.440;2022-10-17T06:34:58;94603.00;;;19.80
41593;BMP180;28026;48.562;14.440;2022-10-17T06:37:31;94614.00;;;19.90
41593;BMP180;28026;48.562;14.440;2022-10-17T06:40:06;94610.00;;;20.10
41593;BMP180;28026;48.562;14.440;2022-10-17T06:42:40;94604.00;;;20.20
41593;BMP180;28026;48.562;14.440;2022-10-17T06:45:11;94606.00;;;20.30
41593;BMP180;28026;48.562;14.440;2022-10-17T06:47:42;94616.00;;;20.40
41593;BMP180;28026;48.562;14.440;2022-10-17T06:50:13;94611.00;;;20.50
41593;BMP180;28026;48.562;14.440;2022-10-17T06:52:43;94621.00;;;20.70
41593;BMP180;28026;48.562;14.440;2022-10-17T06:55:14;94610.00;;;20.80
41593;BMP180;28026;48.562;14.440;2022-10-17T06:57:45;94617.00;;;20.90
41593;BMP180;28026;48.562;14.440;2022-10-17T07:00:16;94616.00;;;21.00
41593;BMP180;28026;48.562;14.440;2022-10-17T07:02:47;94626.00;;;21.10
41593;BMP180;28026;48.562;14.440;2022-10-17T07:05:19;94626.00;;;21.20
41593;BMP180;28026;48.562;14.440;2022-10-17T07:07:50;94621.00;;;21.30
41593;BMP180;28026;48.562;14.440;2022-10-17T07:10:21;94618.00;;;21.30
41593;BMP180;28026;48.562;14.440;2022-10-17T07:12:51;94633.00;;;21.40
41593;BMP180;28026;48.562;14.440;2022-10-17T07:15:22;94635.00;;;21.50
41593;BMP180;28026;48.562;14.440;2022-10-17T07:17:53;94629.00;;;21.70
41593;BMP180;28026;48.562;14.440;2022-10-17T07:20:24;94643.00;;;21.90
41593;BMP180;28026;48.562;14.440;2022-10-17T07:22:55;94634.00;;;22.10
41593;BMP180;28026;48.562;14.440;2022-10-17T07:25:26;94633.00;;;22.20
41593;BMP180;28026;48.562;14.440;2022-10-17T07:27:57;94640.00;;;22.40
41593;BMP180;28026;48.562;14.440;2022-10-17T07:30:28;94633.00;;;22.50
41593;BMP180;28026;48.562;14.440;2022-10-17T07:32:59;94641.00;;;22.60
41593;BMP180;28026;48.562;14.440;2022-10-17T07:35:30;94650.00;;;22.60
41593;BMP180;28026;48.562;14.440;2022-10-17T07:38:01;94644.00;;;22.70
41593;BMP180;28026;48.562;14.440;2022-10-17T07:40:32;94639.00;;;22.90
41593;BMP180;28026;48.562;14.440;2022-10-17T07:43:03;94645.00;;;23.10
41593;BMP180;28026;48.562;14.440;2022-10-17T07:45:34;94652.00;;;23.30
41593;BMP180;28026;48.562;14.440;2022-10-17T07:48:05;94648.00;;;23.30
41593;BMP180;28026;48.562;14.440;2022-10-17T07:50:36;94652.00;;;23.40
41593;BMP180;28026;48.562;14.440;2022-10-17T07:53:07;94656.00;;;23.60
41593;BMP180;28026;48.562;14.440;2022-10-17T07:55:39;94657.00;;;23.90
41593;BMP180;28026;48.562;14.440;2022-10-17T07:58:12;94655.00;;;24.10
41593;BMP180;28026;48.562;14.440;2022-10-17T08:00:43;94658.00;;;24.30
41593;BMP180;28026;48.562;14.440;2022-10-17T08:03:17;94653.00;;;24.50
41593;BMP180;28026;48.562;14.440;2022-10-17T08:05:48;94658.00;;;24.70
41593;BMP180;28026;48.562;14.440;2022-10-17T08:08:19;94651.00;;;24.80
41593;BMP180;28026;48.562;14.440;2022-10-17T08:10:50;94651.00;;;25.00
41593;BMP180;28026;48.562;14.440;2022-10-17T08:13:22;94651.00;;;25.30
41593;BMP180;28026;48.562;14.440;2022-10-17T08:15:53;94657.00;;;25.50
41593;BMP180;28026;48.562;14.440;2022-10-17T08:18:24;94663.00;;;25.70
41593;BMP180;28026;48.562;14.440;2022-10-17T08:20:59;94665.00;;;25.90
41593;BMP180;28026;48.562;14.440;2022-10-17T08:23:31;94659.00;;;26.00
41593;BMP180;28026;48.562;14.440;2022-10-17T08:26:05;94660.00;;;26.20
41593;BMP180;28026;48.562;14.440;2022-10-17T08:28:40;94659.00;;;26.40
41593;BMP180;28026;48.562;14.440;2022-10-17T08:31:14;94658.00;;;26.50
41593;BMP180;28026;48.562;14.440;2022-10-17T08:33:49;94660.00;;;26.70
41593;BMP180;28026;48.562;14.440;2022-10-17T08:36:20;94653.00;;;26.90
41593;BMP180;28026;48.562;14.440;2022-10-17T08:38:51;94658.00;;;27.10
41593;BMP180;28026;48.562;14.440;2022-10-17T08:41:55;94651.00;;;27.30
41593;BMP180;28026;48.562;14.440;2022-10-17T08:47:42;94653.00;;;27.60
41593;BMP180;28026;48.562;14.440;2022-10-17T08:53:54;94653.00;;;27.80
41593;BMP180;28026;48.562;14.440;2022-10-17T08:56:42;94644.00;;;27.90
41593;BMP180;28026;48.562;14.440;2022-10-17T08:59:29;94640.00;;;28.00
41593;BMP180;28026;48.562;14.440;2022-10-17T09:17:57;94651.00;;;29.20
41593;BMP180;28026;48.562;14.440;2022-10-17T09:20:41;94652.00;;;29.30
41593;BMP180;28026;48.562;14.440;2022-10-17T09:23:25;94650.00;;;29.50
41593;BMP180;28026;48.562;14.440;2022-10-17T09:26:00;94654.00;;;29.60
41593;BMP180;28026;48.562;14.440;2022-10-17T09:28:38;94652.00;;;29.70
41593;BMP180;28026;48.562;14.440;2022-10-17T09:31:18;94651.00;;;29.80
41593;BMP180;28026;48.562;14.440;2022-10-17T09:34:00;94654.00;;;29.90
41593;BMP180;28026;48.562;14.440;2022-10-17T09:36:36;94655.00;;;30.10
41593;BMP180;28026;48.562;14.440;2022-10-17T09:39:16;94649.00;;;30.10
41593;BMP180;28026;48.562;14.440;2022-10-17T09:41:55;94651.00;;;30.20
41593;BMP180;28026;48.562;14.440;2022-10-17T09:44:51;94657.00;;;30.30
41593;BMP180;28026;48.562;14.440;2022-10-17T09:47:46;94657.00;;;30.40
41593;BMP180;28026;48.562;14.440;2022-10-17T09:50:33;94658.00;;;30.50
41593;BMP180;28026;48.562;14.440;2022-10-17T09:53:19;94652.00;;;30.70
41593;BMP180;28026;48.562;14.440;2022-10-17T09:56:03;94651.00;;;30.80
41593;BMP180;28026;48.562;14.440;2022-10-17T09:58:51;94658.00;;;30.70
41593;BMP180;28026;48.562;14.440;2022-10-17T10:01:29;94663.00;;;30.70
41593;BMP180;28026;48.562;14.440;2022-10-17T10:04:11;94661.00;;;30.80
41593;BMP180;28026;48.562;14.440;2022-10-17T10:07:05;94663.00;;;30.90
41593;BMP180;28026;48.562;14.440;2022-10-17T10:09:47;94667.00;;;31.00
41593;BMP180;28026;48.562;14.440;2022-10-17T10:12:23;94658.00;;;31.00
41593;BMP180;28026;48.562;14.440;2022-10-17T10:14:55;94658.00;;;31.10
41593;BMP180;28026;48.562;14.440;2022-10-17T10:17:39;94665.00;;;31.20
41593;BMP180;28026;48.562;14.440;2022-10-17T10:20:36;94661.00;;;31.40
41593;BMP180;28026;48.562;14.440;2022-10-17T10:23:17;94660.00;;;31.50
41593;BMP180;28026;48.562;14.440;2022-10-17T10:26:01;94665.00;;;31.70
41593;BMP180;28026;48.562;14.440;2022-10-17T10:28:35;94669.00;;;31.90
41593;BMP180;28026;48.562;14.440;2022-10-17T10:31:08;94668.00;;;32.10
41593;BMP180;28026;48.562;14.440;2022-10-17T10:33:41;94663.00;;;32.10
41593;BMP180;28026;48.562;14.440;2022-10-17T10:36:13;94664.00;;;32.00
41593;BMP180;28026;48.562;14.440;2022-10-17T10:38:54;94668.00;;;31.80
41593;BMP180;28026;48.562;14.440;2022-10-17T10:41:27;94668.00;;;31.70
41593;BMP180;28026;48.562;14.440;2022-10-17T10:43:59;94671.00;;;31.60
41593;BMP180;28026;48.562;14.440;2022-10-17T10:46:30;94670.00;;;31.70
41593;BMP180;28026;48.562;14.440;2022-10-17T10:49:01;94675.00;;;31.70
41593;BMP180;28026;48.562;14.440;2022-10-17T10:51:42;94679.00;;;31.80
41593;BMP180;28026;48.562;14.440;2022-10-17T10:54:44;94673.00;;;31.70
41593;BMP180;28026;48.562;14.440;2022-10-17T10:57:29;94677.00;;;31.90
41593;BMP180;28026;48.562;14.440;2022-10-17T11:00:15;94672.00;;;32.10
41593;BMP180;28026;48.562;14.440;2022-10-17T11:03:16;94666.00;;;32.20
41593;BMP180;28026;48.562;14.440;2022-10-17T11:06:05;94665.00;;;32.10
41593;BMP180;28026;48.562;14.440;2022-10-17T11:11:58;94668.00;;;32.40
41593;BMP180;28026;48.562;14.440;2022-10-17T11:14:50;94669.00;;;32.40
41593;BMP180;28026;48.562;14.440;2022-10-17T11:20:49;94671.00;;;32.50
41593;BMP180;28026;48.562;14.440;2022-10-17T11:23:47;94664.00;;;32.80
41593;BMP180;28026;48.562;14.440;2022-10-17T11:26:34;94664.00;;;33.10
41593;BMP180;28026;48.562;14.440;2022-10-17T11:29:12;94655.00;;;33.40
41593;BMP180;28026;48.562;14.440;2022-10-17T11:31:49;94659.00;;;33.50
41593;BMP180;28026;48.562;14.440;2022-10-17T11:34:31;94661.00;;;33.50
41593;BMP180;28026;48.562;14.440;2022-10-17T11:37:16;94666.00;;;33.40
41593;BMP180;28026;48.562;14.440;2022-10-17T11:39:59;94657.00;;;33.40
41593;BMP180;28026;48.562;14.440;2022-10-17T11:42:51;94654.00;;;33.50
41593;BMP180;28026;48.562;14.440;2022-10-17T11:45:39;94657.00;;;33.60
41593;BMP180;28026;48.562;14.440;2022-10-17T11:48:34;94654.00;;;33.70
41593;BMP180;28026;48.562;14.440;2022-10-17T11:51:12;94650.00;;;33.80
41593;BMP180;28026;48.562;14.440;2022-10-17T12:05:40;94651.00;;;34.30
41593;BMP180;28026;48.562;14.440;2022-10-17T12:08:35;94647.00;;;34.40
41593;BMP180;28026;48.562;14.440;2022-10-17T12:11:11;94645.00;;;34.50
41593;BMP180;28026;48.562;14.440;2022-10-17T12:13:55;94647.00;;;34.60
41593;BMP180;28026;48.562;14.440;2022-10-17T12:16:35;94634.00;;;34.60
41593;BMP180;28026;48.562;14.440;2022-10-17T12:19:23;94631.00;;;34.60
41593;BMP180;28026;48.562;14.440;2022-10-17T12:22:18;94641.00;;;34.60
41593;BMP180;28026;48.562;14.440;2022-10-17T12:25:00;94636.00;;;34.70
41593;BMP180;28026;48.562;14.440;2022-10-17T12:27:42;94642.00;;;34.80
41593;BMP180;28026;48.562;14.440;2022-10-17T12:30:23;94639.00;;;34.60
41593;BMP180;28026;48.562;14.440;2022-10-17T12:33:24;94645.00;;;34.40
41593;BMP180;28026;48.562;14.440;2022-10-17T12:49:48;94657.00;;;34.80
41593;BMP180;28026;48.562;14.440;2022-10-17T12:58:03;94659.00;;;35.20
41593;BMP180;28026;48.562;14.440;2022-10-17T13:03:25;94660.00;;;35.10
41593;BMP180;28026;48.562;14.440;2022-10-17T13:06:04;94659.00;;;35.20
41593;BMP180;28026;48.562;14.440;2022-10-17T13:08:43;94657.00;;;35.30
41593;BMP180;28026;48.562;14.440;2022-10-17T13:11:24;94666.00;;;35.30
41593;BMP180;28026;48.562;14.440;2022-10-17T13:14:02;94671.00;;;35.10
41593;BMP180;28026;48.562;14.440;2022-10-17T13:17:04;94673.00;;;35.00
41593;BMP180;28026;48.562;14.440;2022-10-17T13:19:55;94672.00;;;34.90
41593;BMP180;28026;48.562;14.440;2022-10-17T13:22:30;94672.00;;;34.70
41593;BMP180;28026;48.562;14.440;2022-10-17T13:25:15;94672.00;;;34.60
41593;BMP180;28026;48.562;14.440;2022-10-17T13:27:49;94670.00;;;34.50
41593;BMP180;28026;48.562;14.440;2022-10-17T13:30:29;94671.00;;;34.60
41593;BMP180;28026;48.562;14.440;2022-10-17T13:33:16;94665.00;;;34.60
41593;BMP180;28026;48.562;14.440;2022-10-17T13:35:59;94666.00;;;34.70
41593;BMP180;28026;48.562;14.440;2022-10-17T13:38:34;94668.00;;;34.70
41593;BMP180;28026;48.562;14.440;2022-10-17T13:41:12;94679.00;;;34.70
41593;BMP180;28026;48.562;14.440;2022-10-17T13:43:45;94671.00;;;34.80
41593;BMP180;28026;48.562;14.440;2022-10-17T13:46:29;94669.00;;;34.80
41593;BMP180;28026;48.562;14.440;2022-10-17T13:49:31;94672.00;;;34.90
41593;BMP180;28026;48.562;14.440;2022-10-17T13:52:06;94676.00;;;34.90
41593;BMP180;28026;48.562;14.440;2022-10-17T13:54:49;94669.00;;;34.80
41593;BMP180;28026;48.562;14.440;2022-10-17T13:57:29;94660.00;;;34.90
41593;BMP180;28026;48.562;14.440;2022-10-17T14:00:05;94660.00;;;34.90
41593;BMP180;28026;48.562;14.440;2022-10-17T14:02:44;94665.00;;;34.90
41593;BMP180;28026;48.562;14.440;2022-10-17T14:05:19;94663.00;;;34.90
41593;BMP180;28026;48.562;14.440;2022-10-17T14:08:01;94661.00;;;34.80
41593;BMP180;28026;48.562;14.440;2022-10-17T14:10:38;94665.00;;;34.80
41593;BMP180;28026;48.562;14.440;2022-10-17T14:13:36;94667.00;;;34.80
41593;BMP180;28026;48.562;14.440;2022-10-17T14:16:07;94660.00;;;34.80
41593;BMP180;28026;48.562;14.440;2022-10-17T14:18:40;94667.00;;;34.80
41593;BMP180;28026;48.562;14.440;2022-10-17T14:21:24;94669.00;;;34.70
41593;BMP180;28026;48.562;14.440;2022-10-17T14:26:57;94671.00;;;34.60
41593;BMP180;28026;48.562;14.440;2022-10-17T14:29:49;94667.00;;;34.60
41593;BMP180;28026;48.562;14.440;2022-10-17T14:32:22;94675.00;;;34.70
41593;BMP180;28026;48.562;14.440;2022-10-17T14:34:55;94672.00;;;34.70
41593;BMP180;28026;48.562;14.440;2022-10-17T14:37:41;94675.00;;;35.00
41593;BMP180;28026;48.562;14.440;2022-10-17T14:40:20;94685.00;;;35.20
41593;BMP180;28026;48.562;14.440;2022-10-17T14:42:59;94677.00;;;35.20
41593;BMP180;28026;48.562;14.440;2022-10-17T14:45:37;94681.00;;;35.30
41593;BMP180;28026;48.562;14.440;2022-10-17T14:48:15;94671.00;;;35.20
41593;BMP180;28026;48.562;14.440;2022-10-17T14:51:16;94682.00;;;35.10
41593;BMP180;28026;48.562;14.440;2022-10-17T14:54:18;94688.00;;;35.00
41593;BMP180;28026;48.562;14.440;2022-10-17T14:56:54;94683.00;;;34.90
41593;BMP180;28026;48.562;14.440;2022-10-17T14:59:25;94684.00;;;34.80
41593;BMP180;28026;48.562;14.440;2022-10-17T15:01:56;94690.00;;;34.70
41593;BMP180;28026;48.562;14.440;2022-10-17T15:04:27;94685.00;;;34.60
41593;BMP180;28026;48.562;14.440;2022-10-17T15:06:58;94689.00;;;34.50
41593;BMP180;28026;48.562;14.440;2022-10-17T15:09:28;94685.00;;;34.30
41593;BMP180;28026;48.562;14.440;2022-10-17T15:12:05;94694.00;;;34.10
41593;BMP180;28026;48.562;14.440;2022-10-17T15:14:42;94693.00;;;33.90
41593;BMP180;28026;48.562;14.440;2022-10-17T15:19:51;94699.00;;;33.70
41593;BMP180;28026;48.562;14.440;2022-10-17T15:22:23;94703.00;;;33.60
41593;BMP180;28026;48.562;14.440;2022-10-17T15:24:54;94701.00;;;33.50
41593;BMP180;28026;48.562;14.440;2022-10-17T15:27:25;94708.00;;;33.30
41593;BMP180;28026;48.562;14.440;2022-10-17T15:29:55;94707.00;;;33.10
41593;BMP180;28026;48.562;14.440;2022-10-17T15:32:26;94701.00;;;32.90
41593;BMP180;28026;48.562;14.440;2022-10-17T15:34:57;94702.00;;;32.70
41593;BMP180;28026;48.562;14.440;2022-10-17T15:37:32;94702.00;;;32.40
41593;BMP180;28026;48.562;14.440;2022-10-17T15:40:05;94700.00;;;32.10
41593;BMP180;28026;48.562;14.440;2022-10-17T15:42:36;94705.00;;;31.90
41593;BMP180;28026;48.562;14.440;2022-10-17T15:45:12;94709.00;;;31.60
41593;BMP180;28026;48.562;14.440;2022-10-17T15:48:03;94718.00;;;31.40
41593;BMP180;28026;48.562;14.440;2022-10-17T15:50:36;94712.00;;;31.20
41593;BMP180;28026;48.562;14.440;2022-10-17T15:53:11;94716.00;;;31.00
41593;BMP180;28026;48.562;14.440;2022-10-17T15:55:42;94720.00;;;30.90
41593;BMP180;28026;48.562;14.440;2022-10-17T15:58:16;94718.00;;;30.70
41593;BMP180;28026;48.562;14.440;2022-10-17T16:00:48;94720.00;;;30.60
41593;BMP180;28026;48.562;14.440;2022-10-17T16:03:19;94721.00;;;30.50
41593;BMP180;28026;48.562;14.440;2022-10-17T16:05:50;94724.00;;;30.30
41593;BMP180;28026;48.562;14.440;2022-10-17T16:08:20;94721.00;;;30.20
41593;BMP180;28026;48.562;14.440;2022-10-17T16:10:52;94722.00;;;30.00
41593;BMP180;28026;48.562;14.440;2022-10-17T16:13:23;94720.00;;;29.90
41593;BMP180;28026;48.562;14.440;2022-10-17T16:15:54;94718.00;;;29.80
41593;BMP180;28026;48.562;14.440;2022-10-17T16:18:25;94726.00;;;29.60
41593;BMP180;28026;48.562;14.440;2022-10-17T16:20:57;94733.00;;;29.50
41593;BMP180;28026;48.562;14.440;2022-10-17T16:23:28;94734.00;;;29.40
41593;BMP180;28026;48.562;14.440;2022-10-17T16:25:59;94726.00;;;29.30
41593;BMP180;28026;48.562;14.440;2022-10-17T16:28:30;94726.00;;;29.10